createdAt,value
2022-08-09T00:01:25.767Z,99.90
2022-08-09T00:04:34.863Z,99.90
2022-08-09T00:08:10.684Z,99.90
2022-08-09T00:22:18.246Z,99.90
2022-08-09T00:36:10.071Z,99.90
2022-08-09T01:00:56.748Z,99.90
2022-08-09T01:08:00.292Z,99.90
2022-08-09T01:30:03.745Z,99.90
2022-08-09T01:33:21.581Z,99.90
2022-08-09T01:39:41.779Z,99.90
2022-08-09T01:46:24.990Z,99.90
2022-08-09T01:49:38.854Z,99.90
2022-08-09T01:52:19.634Z,99.90
2022-08-09T02:09:41.836Z,99.90
2022-08-09T02:21:55.919Z,99.90
2022-08-09T02:24:32.615Z,99.90
2022-08-09T02:27:20.697Z,99.90
2022-08-09T02:45:54.840Z,99.90
2022-08-09T03:06:27.218Z,99.90
2022-08-09T03:08:56.850Z,99.90
2022-08-09T03:15:06.855Z,99.90
2022-08-09T03:17:40.311Z,99.90
2022-08-09T03:24:04.831Z,99.90
2022-08-09T03:26:44.943Z,99.90
2022-08-09T03:29:57.344Z,99.90
2022-08-09T03:36:41.375Z,99.90
2022-08-09T03:39:37.891Z,99.90
2022-08-09T03:42:13.731Z,99.90
2022-08-09T03:44:49.178Z,99.90
2022-08-09T03:47:46.847Z,99.90
2022-08-09T03:50:27.974Z,99.90
2022-08-09T03:53:06.371Z,99.90
2022-08-09T03:55:44.498Z,99.90
2022-08-09T03:59:01.237Z,99.90
2022-08-09T04:01:38.368Z,99.90
2022-08-09T04:04:15.473Z,99.90
2022-08-09T04:06:49.220Z,99.90
2022-08-09T04:09:48.074Z,99.90
2022-08-09T04:12:30.135Z,99.90
2022-08-09T04:15:11.676Z,99.90
2022-08-09T04:17:44.857Z,99.90
2022-08-09T04:20:25.309Z,99.90
2022-08-09T04:22:53.186Z,99.90
2022-08-09T04:25:30.781Z,99.90
2022-08-09T04:28:36.151Z,99.90
2022-08-09T04:31:37.709Z,99.90
2022-08-09T04:34:30.563Z,99.90
2022-08-09T04:37:02.403Z,99.90
2022-08-09T04:39:33.541Z,99.90
2022-08-09T04:46:56.964Z,99.90
2022-08-09T05:00:38.601Z,99.90
2022-08-09T05:07:20.020Z,99.90
2022-08-09T05:21:13.314Z,99.90
2022-08-09T05:28:39.636Z,99.90
2022-08-09T05:47:00.651Z,99.90
2022-08-09T05:53:11.745Z,99.90
2022-08-09T05:56:55.404Z,99.90
2022-08-09T05:59:57.475Z,99.90
2022-08-09T06:14:07.166Z,99.90
2022-08-09T06:28:45.504Z,99.90
2022-08-09T06:50:14.050Z,99.90
2022-08-09T06:56:20.721Z,99.90
2022-08-09T07:00:56.943Z,99.90
2022-08-09T07:02:30.770Z,99.90
2022-08-09T07:05:02.147Z,99.90
2022-08-09T07:18:27.060Z,99.90
2022-08-09T07:25:27.791Z,99.90
2022-08-09T07:53:16.934Z,93.00
2022-08-09T08:00:09.998Z,93.70
2022-08-09T08:07:27.155Z,92.20
2022-08-09T08:35:59.897Z,75.00
2022-08-09T08:50:33.806Z,56.60
2022-08-09T09:11:27.671Z,44.70
2022-08-09T09:17:10.585Z,43.80
2022-08-09T09:20:06.434Z,43.70
2022-08-09T09:26:26.129Z,42.40
2022-08-09T09:29:10.970Z,41.90
2022-08-09T09:32:06.349Z,40.60
2022-08-09T09:34:45.131Z,39.40
2022-08-09T09:37:31.635Z,38.90
2022-08-09T09:40:00.045Z,38.20
2022-08-09T09:42:30.880Z,38.30
2022-08-09T09:44:59.349Z,38.00
2022-08-09T09:47:28.477Z,38.30
2022-08-09T09:50:15.105Z,38.70
2022-08-09T09:52:54.622Z,39.10
2022-08-09T09:55:28.378Z,37.50
2022-08-09T09:58:16.498Z,37.50
2022-08-09T10:00:55.505Z,37.10
2022-08-09T10:03:38.488Z,36.80
2022-08-09T10:06:07.079Z,36.60
2022-08-09T10:08:42.515Z,36.60
2022-08-09T10:12:00.557Z,36.60
2022-08-09T10:14:33.015Z,36.60
2022-08-09T10:17:24.004Z,36.60
2022-08-09T10:19:58.773Z,36.40
2022-08-09T10:22:34.843Z,35.90
2022-08-09T10:25:12.219Z,35.60
2022-08-09T10:27:56.264Z,35.70
2022-08-09T10:34:04.377Z,35.00
2022-08-09T10:36:01.174Z,36.10
2022-08-09T10:38:54.834Z,36.20
2022-08-09T10:41:18.650Z,36.20
2022-08-09T10:43:59.785Z,36.10
2022-08-09T10:47:00.465Z,36.50
2022-08-09T10:49:50.017Z,36.30
2022-08-09T10:52:52.922Z,36.50
2022-08-09T10:55:25.328Z,36.30
2022-08-09T10:57:56.039Z,36.60
2022-08-09T11:00:37.569Z,36.60
2022-08-09T11:03:50.530Z,36.60
2022-08-09T11:06:18.549Z,37.00
2022-08-09T11:08:53.112Z,37.20
2022-08-09T11:11:23.000Z,36.60
2022-08-09T11:14:28.084Z,35.80
2022-08-09T11:16:57.300Z,35.90
2022-08-09T11:20:11.059Z,36.20
2022-08-09T11:22:57.358Z,35.20
2022-08-09T11:25:44.742Z,34.90
2022-08-09T11:28:38.336Z,34.30
2022-08-09T11:31:38.872Z,35.10
2022-08-09T11:34:35.093Z,35.40
2022-08-09T11:37:07.438Z,35.60
2022-08-09T11:40:08.357Z,35.60
2022-08-09T11:42:52.911Z,36.50
2022-08-09T11:45:22.472Z,35.10
2022-08-09T11:47:53.261Z,35.60
2022-08-09T11:50:53.893Z,36.50
2022-08-09T11:53:58.485Z,35.20
2022-08-09T11:56:02.535Z,36.40
2022-08-09T11:58:33.169Z,35.20
2022-08-09T12:01:08.865Z,35.20
2022-08-09T12:03:56.543Z,35.80
2022-08-09T12:06:32.346Z,34.30
2022-08-09T12:09:19.450Z,34.40
2022-08-09T12:12:03.261Z,34.20
2022-08-09T12:14:40.870Z,34.00
2022-08-09T12:17:27.531Z,32.80
2022-08-09T12:20:03.821Z,32.50
2022-08-09T12:22:31.359Z,32.80
2022-08-09T12:25:15.528Z,32.60
2022-08-09T12:29:11.081Z,34.20
2022-08-09T12:30:36.246Z,34.10
2022-08-09T12:33:06.208Z,33.90
2022-08-09T12:35:41.072Z,33.30
2022-08-09T12:38:29.730Z,33.10
2022-08-09T12:41:05.551Z,33.10
2022-08-09T12:44:06.181Z,33.40
2022-08-09T12:46:23.725Z,33.90
2022-08-09T12:48:52.887Z,33.20
2022-08-09T12:51:52.730Z,32.90
2022-08-09T12:54:08.424Z,32.60
2022-08-09T12:56:48.479Z,32.90
2022-08-09T12:59:20.647Z,32.80
2022-08-09T13:02:00.098Z,32.00
2022-08-09T13:04:36.231Z,32.10
2022-08-09T13:07:19.582Z,32.50
2022-08-09T13:10:05.427Z,32.10
2022-08-09T13:12:32.941Z,32.90
2022-08-09T13:15:08.964Z,33.10
2022-08-09T13:18:02.947Z,31.90
2022-08-09T13:20:37.699Z,33.20
2022-08-09T13:24:17.551Z,33.00
2022-08-09T13:26:49.823Z,33.50
2022-08-09T13:29:20.591Z,33.20
2022-08-09T13:32:17.188Z,32.90
2022-08-09T13:34:46.711Z,33.00
2022-08-09T13:37:51.002Z,33.80
2022-08-09T13:41:56.536Z,33.10
2022-08-09T13:42:50.925Z,33.80
2022-08-09T13:45:18.971Z,33.20
2022-08-09T13:47:51.272Z,34.00
2022-08-09T13:50:30.668Z,33.00
2022-08-09T13:52:58.903Z,33.00
2022-08-09T13:55:28.778Z,32.80
2022-08-09T13:57:59.359Z,33.50
2022-08-09T14:00:28.970Z,33.00
2022-08-09T14:03:03.061Z,33.30
2022-08-09T14:05:59.585Z,33.00
2022-08-09T14:08:19.931Z,32.30
2022-08-09T14:10:50.656Z,32.80
2022-08-09T14:13:27.681Z,33.20
2022-08-09T14:16:11.069Z,33.30
2022-08-09T14:18:45.097Z,34.40
2022-08-09T14:21:17.779Z,34.10
2022-08-09T14:23:54.672Z,32.80
2022-08-09T14:26:32.612Z,33.40
2022-08-09T14:30:04.320Z,33.60
2022-08-09T14:31:57.552Z,33.80
2022-08-09T14:34:32.555Z,34.50
2022-08-09T14:37:07.572Z,35.30
2022-08-09T14:39:48.907Z,34.70
2022-08-09T14:42:28.783Z,34.70
2022-08-09T14:45:16.334Z,34.60
2022-08-09T14:48:26.809Z,35.10
2022-08-09T14:51:00.656Z,34.80
2022-08-09T14:53:30.444Z,35.70
2022-08-09T14:55:59.122Z,35.10
2022-08-09T14:58:26.473Z,34.60
2022-08-09T15:01:13.953Z,36.10
2022-08-09T15:07:38.621Z,37.10
2022-08-09T15:15:49.718Z,40.70
2022-08-09T15:18:19.974Z,41.50
2022-08-09T15:21:54.979Z,42.10
2022-08-09T15:24:17.973Z,42.10
2022-08-09T15:26:53.121Z,42.10
2022-08-09T15:30:57.391Z,41.70
2022-08-09T15:32:48.225Z,42.80
2022-08-09T15:35:40.842Z,42.80
2022-08-09T15:42:28.588Z,42.20
2022-08-09T15:46:07.311Z,42.10
2022-08-09T15:57:00.665Z,42.70
2022-08-09T16:02:43.013Z,43.70
2022-08-09T16:05:16.620Z,43.50
2022-08-09T16:16:10.043Z,44.10
2022-08-09T16:30:06.368Z,47.00
2022-08-09T22:01:59.078Z,80.20
2022-08-09T22:15:37.043Z,89.40
2022-08-09T22:48:11.073Z,98.10
2022-08-09T23:27:18.808Z,99.90
